Aérodrome :
LOGIN :

S'inscrire | Disclaimer

   EN    FR    IT 

 










Légende :    VFR   VFR Marginal   IFR   IFR Intensif   IFR Très Intensif
Visi : 
Plafond : 
>= 8 km
>= 3000ft
5 à 8 km
1000 à 3000 ft
1500m à 5 km
500 à 1000 ft
800 à 1500m
200 à 500 ft
< 800m
< 200 ft
Symboles :   Orages  Brouillard  Fortes neiges  Fortes précipitations  Vent > 20 kt
SIGMETs :   Divers  Orages  Givrage  Turbulence  Onde Orograph.  Cendres Volcan.







- Altitude de l'aérodrome : 82 ft
- Code IATA : ALG


DAAG - Alger Houari Boumedienne

DERNIER METAR :
  • 101730Z 11003KT 8000 FEW016 SCT200 13/12 Q1027

METARs EXPIRÉS :
  • 101700Z 09003KT 8000 FEW016 SCT200 14/12 Q1027
  • 101630Z 09004KT 8000 FEW023 SCT200 15/13 Q1027
  • 101600Z 08006KT 6000 FEW023 16/13 Q1027
  • 101530Z 07007KT 6000 FEW023 17/14 Q1027
  • 101500Z 03007KT 6000 FEW023 18/13 Q1027
  • 101430Z 03007KT 350V080 7000 FEW023 18/13 Q1027

TAF TAF DAAG
Valide du 10 à 18h jusqu'au 11 à 18h UTC


101700Z 1018/1118 VRB02KT 8000 FEW016 SCT100
PROB40
TEMPO 1018/1024 3000 BR BKN015
Pas de NOTAMs connus pour ce terrain.



MET'MAP, la Météo Aéronautique d'un coup d'oeil ! - Copyright ORBIFLY Décembre 2007 - Disclaimer

ORBIFLY MET'MAP TEAM :

Programmation & Développement : Alexandra Zaïnal
Conception & Développement : Baudouin d'Aumeries
Co-Programmation & Développement : Marc-Olivier Méhu
Soutien technique & logistique : Manuel Goepfert

Contact : metmap@orbifly.com




SOURCES & CREDITS :

   NOAA